sensor_id;sensor_type;location;lat;lon;timestamp;temperature;humidity
24902;DHT22;31328;51.402;0.016;2023-06-22T00:00:56;19.00;93.60
24902;DHT22;31328;51.402;0.016;2023-06-22T00:03:24;18.90;93.70
24902;DHT22;31328;51.402;0.016;2023-06-22T00:05:51;18.90;93.70
24902;DHT22;31328;51.402;0.016;2023-06-22T00:08:19;18.90;93.80
24902;DHT22;31328;51.402;0.016;2023-06-22T00:10:46;18.80;93.80
24902;DHT22;31328;51.402;0.016;2023-06-22T00:13:13;18.80;93.90
24902;DHT22;31328;51.402;0.016;2023-06-22T00:15:41;18.80;93.90
24902;DHT22;31328;51.402;0.016;2023-06-22T00:18:08;18.70;94.00
24902;DHT22;31328;51.402;0.016;2023-06-22T00:20:35;18.70;94.10
24902;DHT22;31328;51.402;0.016;2023-06-22T00:23:06;18.70;94.20
24902;DHT22;31328;51.402;0.016;2023-06-22T00:25:38;18.60;94.20
24902;DHT22;31328;51.402;0.016;2023-06-22T00:28:08;18.60;94.30
24902;DHT22;31328;51.402;0.016;2023-06-22T00:30:35;18.60;94.40
24902;DHT22;31328;51.402;0.016;2023-06-22T00:33:02;18.50;94.40
24902;DHT22;31328;51.402;0.016;2023-06-22T00:35:28;18.50;94.40
24902;DHT22;31328;51.402;0.016;2023-06-22T00:37:56;18.40;94.50
24902;DHT22;31328;51.402;0.016;2023-06-22T00:40:31;18.40;94.50
24902;DHT22;31328;51.402;0.016;2023-06-22T00:42:58;18.30;94.60
24902;DHT22;31328;51.402;0.016;2023-06-22T00:45:25;18.30;94.70
24902;DHT22;31328;51.402;0.016;2023-06-22T00:47:52;18.30;94.80
24902;DHT22;31328;51.402;0.016;2023-06-22T00:50:23;18.20;94.80
24902;DHT22;31328;51.402;0.016;2023-06-22T00:52:57;18.20;94.80
24902;DHT22;31328;51.402;0.016;2023-06-22T00:55:25;18.10;94.80
24902;DHT22;31328;51.402;0.016;2023-06-22T00:57:52;18.10;95.00
24902;DHT22;31328;51.402;0.016;2023-06-22T01:00:25;18.10;95.00
24902;DHT22;31328;51.402;0.016;2023-06-22T01:02:52;18.00;95.10
24902;DHT22;31328;51.402;0.016;2023-06-22T01:05:22;18.00;95.20
24902;DHT22;31328;51.402;0.016;2023-06-22T01:08:05;18.00;95.20
24902;DHT22;31328;51.402;0.016;2023-06-22T01:13:45;17.90;95.30
24902;DHT22;31328;51.402;0.016;2023-06-22T01:16:25;17.90;95.30
24902;DHT22;31328;51.402;0.016;2023-06-22T01:18:55;17.80;95.30
24902;DHT22;31328;51.402;0.016;2023-06-22T01:21:25;17.80;95.40
24902;DHT22;31328;51.402;0.016;2023-06-22T01:26:53;17.80;95.40
24902;DHT22;31328;51.402;0.016;2023-06-22T01:29:21;17.80;95.50
24902;DHT22;31328;51.402;0.016;2023-06-22T01:31:49;17.70;95.50
24902;DHT22;31328;51.402;0.016;2023-06-22T01:34:17;17.80;95.50
24902;DHT22;31328;51.402;0.016;2023-06-22T01:36:44;17.80;95.60
24902;DHT22;31328;51.402;0.016;2023-06-22T01:39:11;17.70;95.50
24902;DHT22;31328;51.402;0.016;2023-06-22T01:41:39;17.70;95.60
24902;DHT22;31328;51.402;0.016;2023-06-22T01:44:09;17.70;95.80
24902;DHT22;31328;51.402;0.016;2023-06-22T01:46:36;17.70;95.70
24902;DHT22;31328;51.402;0.016;2023-06-22T01:49:04;17.70;95.70
24902;DHT22;31328;51.402;0.016;2023-06-22T01:51:30;17.60;95.70
24902;DHT22;31328;51.402;0.016;2023-06-22T01:54:01;17.60;95.70
24902;DHT22;31328;51.402;0.016;2023-06-22T01:56:28;17.60;95.80
24902;DHT22;31328;51.402;0.016;2023-06-22T01:59:11;17.60;95.80
24902;DHT22;31328;51.402;0.016;2023-06-22T02:04:35;17.50;95.90
24902;DHT22;31328;51.402;0.016;2023-06-22T02:07:07;17.50;95.90
24902;DHT22;31328;51.402;0.016;2023-06-22T02:09:35;17.60;96.00
24902;DHT22;31328;51.402;0.016;2023-06-22T02:12:04;17.50;96.00
24902;DHT22;31328;51.402;0.016;2023-06-22T02:14:31;17.50;96.00
24902;DHT22;31328;51.402;0.016;2023-06-22T02:16:58;17.50;96.00
24902;DHT22;31328;51.402;0.016;2023-06-22T02:19:26;17.40;96.00
24902;DHT22;31328;51.402;0.016;2023-06-22T02:21:53;17.50;96.10
24902;DHT22;31328;51.402;0.016;2023-06-22T02:24:20;17.40;96.10
24902;DHT22;31328;51.402;0.016;2023-06-22T02:26:49;17.40;96.10
24902;DHT22;31328;51.402;0.016;2023-06-22T02:29:15;17.40;96.20
24902;DHT22;31328;51.402;0.016;2023-06-22T02:31:42;17.40;96.10
24902;DHT22;31328;51.402;0.016;2023-06-22T02:34:09;17.40;96.20
24902;DHT22;31328;51.402;0.016;2023-06-22T02:36:35;17.30;96.20
24902;DHT22;31328;51.402;0.016;2023-06-22T02:39:02;17.30;96.30
24902;DHT22;31328;51.402;0.016;2023-06-22T02:41:30;17.20;96.30
24902;DHT22;31328;51.402;0.016;2023-06-22T02:43:56;17.20;96.40
24902;DHT22;31328;51.402;0.016;2023-06-22T02:46:23;17.20;96.40
24902;DHT22;31328;51.402;0.016;2023-06-22T02:48:50;17.10;96.40
24902;DHT22;31328;51.402;0.016;2023-06-22T02:51:17;17.10;96.50
24902;DHT22;31328;51.402;0.016;2023-06-22T02:53:43;17.10;96.60
24902;DHT22;31328;51.402;0.016;2023-06-22T02:56:13;17.00;96.50
24902;DHT22;31328;51.402;0.016;2023-06-22T02:58:39;17.00;96.50
24902;DHT22;31328;51.402;0.016;2023-06-22T03:01:09;17.00;96.60
24902;DHT22;31328;51.402;0.016;2023-06-22T03:03:37;16.90;96.60
24902;DHT22;31328;51.402;0.016;2023-06-22T03:06:03;16.90;96.80
24902;DHT22;31328;51.402;0.016;2023-06-22T03:08:30;16.90;96.80
24902;DHT22;31328;51.402;0.016;2023-06-22T03:10:56;16.80;96.80
24902;DHT22;31328;51.402;0.016;2023-06-22T03:13:23;16.80;96.80
24902;DHT22;31328;51.402;0.016;2023-06-22T03:15:50;16.80;96.80
24902;DHT22;31328;51.402;0.016;2023-06-22T03:18:16;16.80;96.90
24902;DHT22;31328;51.402;0.016;2023-06-22T03:20:43;16.80;96.90
24902;DHT22;31328;51.402;0.016;2023-06-22T03:23:09;16.80;96.90
24902;DHT22;31328;51.402;0.016;2023-06-22T03:25:35;16.80;97.00
24902;DHT22;31328;51.402;0.016;2023-06-22T03:28:02;16.70;97.00
24902;DHT22;31328;51.402;0.016;2023-06-22T03:30:29;16.70;97.00
24902;DHT22;31328;51.402;0.016;2023-06-22T03:32:55;16.70;97.00
24902;DHT22;31328;51.402;0.016;2023-06-22T03:35:21;16.70;97.00
24902;DHT22;31328;51.402;0.016;2023-06-22T03:37:48;16.70;97.00
24902;DHT22;31328;51.402;0.016;2023-06-22T03:40:15;16.60;97.00
24902;DHT22;31328;51.402;0.016;2023-06-22T03:42:41;16.60;97.10
24902;DHT22;31328;51.402;0.016;2023-06-22T03:45:09;16.60;97.20
24902;DHT22;31328;51.402;0.016;2023-06-22T03:47:36;16.60;97.20
24902;DHT22;31328;51.402;0.016;2023-06-22T03:50:03;16.60;97.30
24902;DHT22;31328;51.402;0.016;2023-06-22T03:52:32;16.60;97.40
24902;DHT22;31328;51.402;0.016;2023-06-22T03:54:58;16.60;97.40
24902;DHT22;31328;51.402;0.016;2023-06-22T03:57:25;16.60;97.40
24902;DHT22;31328;51.402;0.016;2023-06-22T03:59:51;16.60;97.50
24902;DHT22;31328;51.402;0.016;2023-06-22T04:02:17;16.60;97.50
24902;DHT22;31328;51.402;0.016;2023-06-22T04:04:44;16.60;97.60
24902;DHT22;31328;51.402;0.016;2023-06-22T04:07:10;16.60;97.60
24902;DHT22;31328;51.402;0.016;2023-06-22T04:09:36;16.60;97.60
24902;DHT22;31328;51.402;0.016;2023-06-22T04:12:03;16.60;97.70
24902;DHT22;31328;51.402;0.016;2023-06-22T04:14:29;16.60;97.60
24902;DHT22;31328;51.402;0.016;2023-06-22T04:16:55;16.60;97.70
24902;DHT22;31328;51.402;0.016;2023-06-22T04:19:22;16.60;97.80
24902;DHT22;31328;51.402;0.016;2023-06-22T04:21:48;16.60;98.10
24902;DHT22;31328;51.402;0.016;2023-06-22T04:24:15;16.60;97.80
24902;DHT22;31328;51.402;0.016;2023-06-22T04:26:41;16.60;97.80
24902;DHT22;31328;51.402;0.016;2023-06-22T04:29:13;16.60;97.70
24902;DHT22;31328;51.402;0.016;2023-06-22T04:31:39;16.60;97.80
24902;DHT22;31328;51.402;0.016;2023-06-22T04:34:07;16.60;97.80
24902;DHT22;31328;51.402;0.016;2023-06-22T04:36:39;16.60;97.90
24902;DHT22;31328;51.402;0.016;2023-06-22T04:39:10;16.70;97.90
24902;DHT22;31328;51.402;0.016;2023-06-22T04:41:38;16.60;97.90
24902;DHT22;31328;51.402;0.016;2023-06-22T04:44:18;16.70;97.90
24902;DHT22;31328;51.402;0.016;2023-06-22T04:46:56;16.70;97.90
24902;DHT22;31328;51.402;0.016;2023-06-22T04:49:27;16.70;97.90
24902;DHT22;31328;51.402;0.016;2023-06-22T04:52:00;16.70;97.90
24902;DHT22;31328;51.402;0.016;2023-06-22T04:54:27;16.70;97.90
24902;DHT22;31328;51.402;0.016;2023-06-22T04:56:54;16.80;98.00
24902;DHT22;31328;51.402;0.016;2023-06-22T04:59:23;16.70;98.00
24902;DHT22;31328;51.402;0.016;2023-06-22T05:02:01;16.70;98.00
24902;DHT22;31328;51.402;0.016;2023-06-22T05:04:29;16.70;98.00
24902;DHT22;31328;51.402;0.016;2023-06-22T05:06:59;16.80;98.10
24902;DHT22;31328;51.402;0.016;2023-06-22T05:09:29;16.80;98.10
24902;DHT22;31328;51.402;0.016;2023-06-22T05:11:56;16.80;98.10
24902;DHT22;31328;51.402;0.016;2023-06-22T05:14:26;16.80;98.10
24902;DHT22;31328;51.402;0.016;2023-06-22T05:16:52;16.80;98.10
24902;DHT22;31328;51.402;0.016;2023-06-22T05:19:19;16.90;98.10
24902;DHT22;31328;51.402;0.016;2023-06-22T05:21:45;16.90;98.10
24902;DHT22;31328;51.402;0.016;2023-06-22T05:24:12;17.00;98.10
24902;DHT22;31328;51.402;0.016;2023-06-22T05:26:38;17.00;98.10
24902;DHT22;31328;51.402;0.016;2023-06-22T05:29:04;17.10;98.10
24902;DHT22;31328;51.402;0.016;2023-06-22T05:31:30;17.20;98.10
24902;DHT22;31328;51.402;0.016;2023-06-22T05:33:57;17.30;98.10
24902;DHT22;31328;51.402;0.016;2023-06-22T05:36:23;17.30;98.10
24902;DHT22;31328;51.402;0.016;2023-06-22T05:38:52;17.40;98.10
24902;DHT22;31328;51.402;0.016;2023-06-22T05:41:18;17.50;98.00
24902;DHT22;31328;51.402;0.016;2023-06-22T05:43:45;17.50;98.00
24902;DHT22;31328;51.402;0.016;2023-06-22T05:46:11;17.60;98.00
24902;DHT22;31328;51.402;0.016;2023-06-22T05:48:37;17.70;98.00
24902;DHT22;31328;51.402;0.016;2023-06-22T05:51:04;17.70;97.90
24902;DHT22;31328;51.402;0.016;2023-06-22T05:53:30;17.80;98.00
24902;DHT22;31328;51.402;0.016;2023-06-22T05:55:56;17.90;98.00
24902;DHT22;31328;51.402;0.016;2023-06-22T05:58:23;17.90;98.00
24902;DHT22;31328;51.402;0.016;2023-06-22T06:00:49;18.00;98.00
24902;DHT22;31328;51.402;0.016;2023-06-22T06:03:15;18.00;98.00
24902;DHT22;31328;51.402;0.016;2023-06-22T06:05:43;18.20;98.00
24902;DHT22;31328;51.402;0.016;2023-06-22T06:08:11;18.20;98.00
24902;DHT22;31328;51.402;0.016;2023-06-22T06:10:38;18.30;98.00
24902;DHT22;31328;51.402;0.016;2023-06-22T06:13:05;18.30;98.00
24902;DHT22;31328;51.402;0.016;2023-06-22T06:15:32;18.40;98.00
24902;DHT22;31328;51.402;0.016;2023-06-22T06:17:59;18.50;98.00
24902;DHT22;31328;51.402;0.016;2023-06-22T06:20:26;18.50;97.90
24902;DHT22;31328;51.402;0.016;2023-06-22T06:22:54;18.60;97.90
24902;DHT22;31328;51.402;0.016;2023-06-22T06:25:20;18.60;97.80
24902;DHT22;31328;51.402;0.016;2023-06-22T06:27:49;18.70;97.80
24902;DHT22;31328;51.402;0.016;2023-06-22T06:30:17;18.80;97.90
24902;DHT22;31328;51.402;0.016;2023-06-22T06:32:44;18.80;97.80
24902;DHT22;31328;51.402;0.016;2023-06-22T06:35:12;18.90;97.80
24902;DHT22;31328;51.402;0.016;2023-06-22T06:37:41;18.90;97.80
24902;DHT22;31328;51.402;0.016;2023-06-22T06:40:08;18.90;97.80
24902;DHT22;31328;51.402;0.016;2023-06-22T06:42:37;19.00;97.80
24902;DHT22;31328;51.402;0.016;2023-06-22T06:45:05;19.00;97.70
24902;DHT22;31328;51.402;0.016;2023-06-22T06:47:31;19.10;97.70
24902;DHT22;31328;51.402;0.016;2023-06-22T06:49:58;19.20;97.80
24902;DHT22;31328;51.402;0.016;2023-06-22T06:52:24;19.20;97.60
24902;DHT22;31328;51.402;0.016;2023-06-22T06:54:50;19.30;97.60
24902;DHT22;31328;51.402;0.016;2023-06-22T06:57:18;19.30;97.60
24902;DHT22;31328;51.402;0.016;2023-06-22T06:59:46;19.40;97.60
24902;DHT22;31328;51.402;0.016;2023-06-22T07:02:12;19.50;97.60
24902;DHT22;31328;51.402;0.016;2023-06-22T07:04:39;19.60;97.60
24902;DHT22;31328;51.402;0.016;2023-06-22T07:07:05;19.60;97.50
24902;DHT22;31328;51.402;0.016;2023-06-22T07:09:31;19.70;97.50
24902;DHT22;31328;51.402;0.016;2023-06-22T07:11:58;19.70;97.40
24902;DHT22;31328;51.402;0.016;2023-06-22T07:14:24;19.80;97.40
24902;DHT22;31328;51.402;0.016;2023-06-22T07:16:50;19.80;97.40
24902;DHT22;31328;51.402;0.016;2023-06-22T07:19:24;19.80;97.40
24902;DHT22;31328;51.402;0.016;2023-06-22T07:21:51;19.80;97.40
24902;DHT22;31328;51.402;0.016;2023-06-22T07:24:17;19.80;97.40
24902;DHT22;31328;51.402;0.016;2023-06-22T07:26:47;19.80;97.40
24902;DHT22;31328;51.402;0.016;2023-06-22T07:29:14;19.90;97.40
24902;DHT22;31328;51.402;0.016;2023-06-22T07:31:40;19.80;97.50
24902;DHT22;31328;51.402;0.016;2023-06-22T07:34:07;19.90;97.40
24902;DHT22;31328;51.402;0.016;2023-06-22T07:36:34;19.80;97.40
24902;DHT22;31328;51.402;0.016;2023-06-22T07:39:04;19.80;97.40
24902;DHT22;31328;51.402;0.016;2023-06-22T07:41:31;19.90;97.50
24902;DHT22;31328;51.402;0.016;2023-06-22T07:43:57;19.90;97.40
24902;DHT22;31328;51.402;0.016;2023-06-22T07:46:24;19.90;97.50
24902;DHT22;31328;51.402;0.016;2023-06-22T07:48:50;19.90;97.40
24902;DHT22;31328;51.402;0.016;2023-06-22T07:51:17;19.90;97.40
24902;DHT22;31328;51.402;0.016;2023-06-22T07:53:44;20.00;97.40
24902;DHT22;31328;51.402;0.016;2023-06-22T07:56:11;20.00;97.30
24902;DHT22;31328;51.402;0.016;2023-06-22T07:58:37;20.00;97.30
24902;DHT22;31328;51.402;0.016;2023-06-22T08:01:03;20.10;97.20
24902;DHT22;31328;51.402;0.016;2023-06-22T08:03:30;20.10;97.20
24902;DHT22;31328;51.402;0.016;2023-06-22T08:05:56;20.10;97.10
24902;DHT22;31328;51.402;0.016;2023-06-22T08:08:22;20.20;97.20
24902;DHT22;31328;51.402;0.016;2023-06-22T08:10:49;20.10;97.00
24902;DHT22;31328;51.402;0.016;2023-06-22T08:13:15;20.20;97.00
24902;DHT22;31328;51.402;0.016;2023-06-22T08:15:41;20.20;96.90
24902;DHT22;31328;51.402;0.016;2023-06-22T08:18:08;20.20;96.90
24902;DHT22;31328;51.402;0.016;2023-06-22T08:20:34;20.30;96.90
24902;DHT22;31328;51.402;0.016;2023-06-22T08:23:01;20.40;96.90
24902;DHT22;31328;51.402;0.016;2023-06-22T08:25:35;20.40;96.90
24902;DHT22;31328;51.402;0.016;2023-06-22T08:28:02;20.40;96.80
24902;DHT22;31328;51.402;0.016;2023-06-22T08:30:29;20.50;96.80
24902;DHT22;31328;51.402;0.016;2023-06-22T08:32:55;20.50;96.80
24902;DHT22;31328;51.402;0.016;2023-06-22T08:35:23;20.60;96.70
24902;DHT22;31328;51.402;0.016;2023-06-22T08:37:49;20.70;96.60
24902;DHT22;31328;51.402;0.016;2023-06-22T08:40:19;20.80;96.50
24902;DHT22;31328;51.402;0.016;2023-06-22T08:42:46;21.00;96.40
24902;DHT22;31328;51.402;0.016;2023-06-22T08:45:13;21.20;96.20
24902;DHT22;31328;51.402;0.016;2023-06-22T08:47:41;21.50;95.90
24902;DHT22;31328;51.402;0.016;2023-06-22T08:50:08;21.70;95.70
24902;DHT22;31328;51.402;0.016;2023-06-22T08:52:35;22.00;95.60
24902;DHT22;31328;51.402;0.016;2023-06-22T08:55:02;22.20;95.30
24902;DHT22;31328;51.402;0.016;2023-06-22T08:57:30;22.40;95.00
24902;DHT22;31328;51.402;0.016;2023-06-22T08:59:56;22.70;94.90
24902;DHT22;31328;51.402;0.016;2023-06-22T09:02:26;22.90;94.70
24902;DHT22;31328;51.402;0.016;2023-06-22T09:04:59;23.00;94.50
24902;DHT22;31328;51.402;0.016;2023-06-22T09:07:26;23.20;94.40
24902;DHT22;31328;51.402;0.016;2023-06-22T09:09:52;23.30;94.30
24902;DHT22;31328;51.402;0.016;2023-06-22T09:12:20;23.40;94.30
24902;DHT22;31328;51.402;0.016;2023-06-22T09:14:48;23.50;94.30
24902;DHT22;31328;51.402;0.016;2023-06-22T09:17:15;23.70;94.20
24902;DHT22;31328;51.402;0.016;2023-06-22T09:19:41;23.80;94.10
24902;DHT22;31328;51.402;0.016;2023-06-22T09:22:07;23.90;94.10
24902;DHT22;31328;51.402;0.016;2023-06-22T09:24:34;24.00;94.00
24902;DHT22;31328;51.402;0.016;2023-06-22T09:27:00;24.00;93.90
24902;DHT22;31328;51.402;0.016;2023-06-22T09:29:26;24.00;94.00
24902;DHT22;31328;51.402;0.016;2023-06-22T09:31:53;24.00;94.00
24902;DHT22;31328;51.402;0.016;2023-06-22T09:34:22;24.00;93.90
24902;DHT22;31328;51.402;0.016;2023-06-22T09:36:48;24.10;93.80
24902;DHT22;31328;51.402;0.016;2023-06-22T09:39:14;24.10;93.80
24902;DHT22;31328;51.402;0.016;2023-06-22T09:41:40;24.20;93.80
24902;DHT22;31328;51.402;0.016;2023-06-22T09:44:07;24.30;93.60
24902;DHT22;31328;51.402;0.016;2023-06-22T09:46:33;24.40;93.50
24902;DHT22;31328;51.402;0.016;2023-06-22T09:48:59;24.40;93.20
24902;DHT22;31328;51.402;0.016;2023-06-22T09:51:26;24.50;93.10
24902;DHT22;31328;51.402;0.016;2023-06-22T09:53:52;24.50;93.00
24902;DHT22;31328;51.402;0.016;2023-06-22T09:56:20;24.40;92.90
24902;DHT22;31328;51.402;0.016;2023-06-22T09:58:47;24.50;92.90
24902;DHT22;31328;51.402;0.016;2023-06-22T10:01:14;24.60;92.70
24902;DHT22;31328;51.402;0.016;2023-06-22T10:03:40;24.70;92.60
24902;DHT22;31328;51.402;0.016;2023-06-22T10:06:08;24.80;92.50
24902;DHT22;31328;51.402;0.016;2023-06-22T10:08:35;25.00;92.40
24902;DHT22;31328;51.402;0.016;2023-06-22T10:11:03;25.20;92.40
24902;DHT22;31328;51.402;0.016;2023-06-22T10:13:29;25.30;92.00
24902;DHT22;31328;51.402;0.016;2023-06-22T10:15:55;25.40;91.70
24902;DHT22;31328;51.402;0.016;2023-06-22T10:18:22;25.50;91.60
24902;DHT22;31328;51.402;0.016;2023-06-22T10:20:49;25.60;91.60
24902;DHT22;31328;51.402;0.016;2023-06-22T10:23:19;25.70;91.50
24902;DHT22;31328;51.402;0.016;2023-06-22T10:25:46;25.90;91.40
24902;DHT22;31328;51.402;0.016;2023-06-22T10:28:13;25.90;91.20
24902;DHT22;31328;51.402;0.016;2023-06-22T10:30:40;26.10;91.10
24902;DHT22;31328;51.402;0.016;2023-06-22T10:33:10;26.10;90.70
24902;DHT22;31328;51.402;0.016;2023-06-22T10:35:36;26.20;90.40
24902;DHT22;31328;51.402;0.016;2023-06-22T10:38:06;26.40;90.50
24902;DHT22;31328;51.402;0.016;2023-06-22T10:40:33;26.40;89.40
24902;DHT22;31328;51.402;0.016;2023-06-22T10:42:59;26.50;89.60
24902;DHT22;31328;51.402;0.016;2023-06-22T10:45:25;26.60;89.70
24902;DHT22;31328;51.402;0.016;2023-06-22T10:47:53;26.60;89.50
24902;DHT22;31328;51.402;0.016;2023-06-22T10:50:19;26.60;89.20
24902;DHT22;31328;51.402;0.016;2023-06-22T10:52:46;26.70;89.40
24902;DHT22;31328;51.402;0.016;2023-06-22T10:55:12;26.80;89.40
24902;DHT22;31328;51.402;0.016;2023-06-22T10:57:39;26.90;90.00
24902;DHT22;31328;51.402;0.016;2023-06-22T11:00:09;27.00;89.00
24902;DHT22;31328;51.402;0.016;2023-06-22T11:02:37;27.00;88.20
24902;DHT22;31328;51.402;0.016;2023-06-22T11:05:04;27.10;87.50
24902;DHT22;31328;51.402;0.016;2023-06-22T11:07:30;27.20;87.30
24902;DHT22;31328;51.402;0.016;2023-06-22T11:09:57;27.20;87.20
24902;DHT22;31328;51.402;0.016;2023-06-22T11:12:23;27.30;86.90
24902;DHT22;31328;51.402;0.016;2023-06-22T11:14:50;27.30;87.50
24902;DHT22;31328;51.402;0.016;2023-06-22T11:17:18;27.40;86.40
24902;DHT22;31328;51.402;0.016;2023-06-22T11:19:44;27.40;86.30
24902;DHT22;31328;51.402;0.016;2023-06-22T11:22:11;27.50;86.30
24902;DHT22;31328;51.402;0.016;2023-06-22T11:24:37;27.60;85.20
24902;DHT22;31328;51.402;0.016;2023-06-22T11:27:03;27.70;84.40
24902;DHT22;31328;51.402;0.016;2023-06-22T11:29:30;27.70;84.60
24902;DHT22;31328;51.402;0.016;2023-06-22T11:31:57;27.70;84.60
24902;DHT22;31328;51.402;0.016;2023-06-22T11:34:23;27.70;84.20
24902;DHT22;31328;51.402;0.016;2023-06-22T11:36:49;27.60;84.00
24902;DHT22;31328;51.402;0.016;2023-06-22T11:39:16;27.60;83.60
24902;DHT22;31328;51.402;0.016;2023-06-22T11:41:42;27.50;83.50
24902;DHT22;31328;51.402;0.016;2023-06-22T11:44:08;27.40;83.10
24902;DHT22;31328;51.402;0.016;2023-06-22T11:46:34;27.40;82.60
24902;DHT22;31328;51.402;0.016;2023-06-22T11:49:02;27.30;82.90
24902;DHT22;31328;51.402;0.016;2023-06-22T11:51:28;27.40;83.00
24902;DHT22;31328;51.402;0.016;2023-06-22T11:53:57;27.50;83.10
24902;DHT22;31328;51.402;0.016;2023-06-22T11:56:24;27.50;83.00
24902;DHT22;31328;51.402;0.016;2023-06-22T11:58:50;27.60;82.40
24902;DHT22;31328;51.402;0.016;2023-06-22T12:01:16;27.70;81.80
24902;DHT22;31328;51.402;0.016;2023-06-22T12:03:43;27.90;81.20
24902;DHT22;31328;51.402;0.016;2023-06-22T12:06:10;28.00;79.60
24902;DHT22;31328;51.402;0.016;2023-06-22T12:08:36;28.10;80.10
24902;DHT22;31328;51.402;0.016;2023-06-22T12:11:03;28.10;79.80
24902;DHT22;31328;51.402;0.016;2023-06-22T12:13:29;28.00;80.10
24902;DHT22;31328;51.402;0.016;2023-06-22T12:15:55;27.90;80.20
24902;DHT22;31328;51.402;0.016;2023-06-22T12:18:22;27.80;80.20
24902;DHT22;31328;51.402;0.016;2023-06-22T12:20:49;27.70;80.10
24902;DHT22;31328;51.402;0.016;2023-06-22T12:23:17;27.60;79.70
24902;DHT22;31328;51.402;0.016;2023-06-22T12:25:45;27.50;80.10
24902;DHT22;31328;51.402;0.016;2023-06-22T12:28:11;27.40;79.40
24902;DHT22;31328;51.402;0.016;2023-06-22T12:30:37;27.40;80.00
24902;DHT22;31328;51.402;0.016;2023-06-22T12:33:03;27.30;80.00
24902;DHT22;31328;51.402;0.016;2023-06-22T12:35:30;27.30;80.20
24902;DHT22;31328;51.402;0.016;2023-06-22T12:37:56;27.20;80.00
24902;DHT22;31328;51.402;0.016;2023-06-22T12:40:22;27.10;80.00
24902;DHT22;31328;51.402;0.016;2023-06-22T12:42:49;27.00;80.00
24902;DHT22;31328;51.402;0.016;2023-06-22T12:45:15;27.00;79.80
24902;DHT22;31328;51.402;0.016;2023-06-22T12:47:42;27.10;79.70
24902;DHT22;31328;51.402;0.016;2023-06-22T12:50:09;27.20;79.20
24902;DHT22;31328;51.402;0.016;2023-06-22T12:52:37;27.30;78.50
24902;DHT22;31328;51.402;0.016;2023-06-22T12:55:07;27.40;78.10
24902;DHT22;31328;51.402;0.016;2023-06-22T12:57:33;27.50;77.70
24902;DHT22;31328;51.402;0.016;2023-06-22T13:00:00;27.60;76.40
24902;DHT22;31328;51.402;0.016;2023-06-22T13:02:26;27.70;75.90
24902;DHT22;31328;51.402;0.016;2023-06-22T13:04:53;27.70;75.80
24902;DHT22;31328;51.402;0.016;2023-06-22T13:07:19;27.70;75.30
24902;DHT22;31328;51.402;0.016;2023-06-22T13:09:46;27.70;75.50
24902;DHT22;31328;51.402;0.016;2023-06-22T13:12:12;27.60;75.20
24902;DHT22;31328;51.402;0.016;2023-06-22T13:14:39;27.60;74.90
24902;DHT22;31328;51.402;0.016;2023-06-22T13:17:05;27.60;75.50
24902;DHT22;31328;51.402;0.016;2023-06-22T13:19:31;27.60;75.40
24902;DHT22;31328;51.402;0.016;2023-06-22T13:21:59;27.80;75.00
24902;DHT22;31328;51.402;0.016;2023-06-22T13:24:26;27.90;74.90
24902;DHT22;31328;51.402;0.016;2023-06-22T13:26:52;28.00;74.20
24902;DHT22;31328;51.402;0.016;2023-06-22T13:29:18;28.10;74.40
24902;DHT22;31328;51.402;0.016;2023-06-22T13:31:45;28.10;74.00
24902;DHT22;31328;51.402;0.016;2023-06-22T13:34:11;28.10;74.20
24902;DHT22;31328;51.402;0.016;2023-06-22T13:36:38;28.00;74.20
24902;DHT22;31328;51.402;0.016;2023-06-22T13:39:04;28.00;73.70
24902;DHT22;31328;51.402;0.016;2023-06-22T13:41:31;27.90;71.30
24902;DHT22;31328;51.402;0.016;2023-06-22T13:43:57;27.80;72.60
24902;DHT22;31328;51.402;0.016;2023-06-22T13:46:23;27.70;73.00
24902;DHT22;31328;51.402;0.016;2023-06-22T13:48:50;27.60;73.20
24902;DHT22;31328;51.402;0.016;2023-06-22T13:51:16;27.50;72.80
24902;DHT22;31328;51.402;0.016;2023-06-22T13:53:43;27.40;73.10
24902;DHT22;31328;51.402;0.016;2023-06-22T13:56:09;27.20;73.40
24902;DHT22;31328;51.402;0.016;2023-06-22T13:58:35;27.10;73.60
24902;DHT22;31328;51.402;0.016;2023-06-22T14:01:02;27.10;73.80
24902;DHT22;31328;51.402;0.016;2023-06-22T14:03:28;27.20;73.80
24902;DHT22;31328;51.402;0.016;2023-06-22T14:05:54;27.30;73.40
24902;DHT22;31328;51.402;0.016;2023-06-22T14:08:22;27.40;72.70
24902;DHT22;31328;51.402;0.016;2023-06-22T14:10:50;27.50;72.50
24902;DHT22;31328;51.402;0.016;2023-06-22T14:13:16;27.60;71.70
24902;DHT22;31328;51.402;0.016;2023-06-22T14:15:43;27.80;71.50
24902;DHT22;31328;51.402;0.016;2023-06-22T14:18:09;27.80;70.70
24902;DHT22;31328;51.402;0.016;2023-06-22T14:20:35;27.80;70.40
24902;DHT22;31328;51.402;0.016;2023-06-22T14:23:01;27.80;70.40
24902;DHT22;31328;51.402;0.016;2023-06-22T14:25:28;27.70;70.30
24902;DHT22;31328;51.402;0.016;2023-06-22T14:27:54;27.60;70.50
24902;DHT22;31328;51.402;0.016;2023-06-22T14:30:20;27.50;70.30
24902;DHT22;31328;51.402;0.016;2023-06-22T14:32:47;27.40;70.20
24902;DHT22;31328;51.402;0.016;2023-06-22T14:35:13;27.30;70.50
24902;DHT22;31328;51.402;0.016;2023-06-22T14:37:39;27.10;70.50
24902;DHT22;31328;51.402;0.016;2023-06-22T14:40:06;27.10;70.20
24902;DHT22;31328;51.402;0.016;2023-06-22T14:42:32;27.00;69.60
24902;DHT22;31328;51.402;0.016;2023-06-22T14:44:59;27.10;69.80
24902;DHT22;31328;51.402;0.016;2023-06-22T14:47:25;27.10;69.60
24902;DHT22;31328;51.402;0.016;2023-06-22T14:49:51;27.20;69.70
24902;DHT22;31328;51.402;0.016;2023-06-22T14:52:18;27.30;69.10
24902;DHT22;31328;51.402;0.016;2023-06-22T14:54:44;27.40;69.20
24902;DHT22;31328;51.402;0.016;2023-06-22T14:57:10;27.40;68.90
24902;DHT22;31328;51.402;0.016;2023-06-22T14:59:37;27.50;68.90
24902;DHT22;31328;51.402;0.016;2023-06-22T15:02:03;27.50;68.80
24902;DHT22;31328;51.402;0.016;2023-06-22T15:04:29;27.60;68.30
24902;DHT22;31328;51.402;0.016;2023-06-22T15:07:01;27.80;68.30
24902;DHT22;31328;51.402;0.016;2023-06-22T15:09:27;27.80;68.10
24902;DHT22;31328;51.402;0.016;2023-06-22T15:11:53;27.90;67.20
24902;DHT22;31328;51.402;0.016;2023-06-22T15:14:19;28.00;67.20
24902;DHT22;31328;51.402;0.016;2023-06-22T15:16:46;28.10;66.80
24902;DHT22;31328;51.402;0.016;2023-06-22T15:19:12;28.10;66.70
24902;DHT22;31328;51.402;0.016;2023-06-22T15:21:39;28.10;65.60
24902;DHT22;31328;51.402;0.016;2023-06-22T15:24:05;28.00;65.60
24902;DHT22;31328;51.402;0.016;2023-06-22T15:26:31;27.90;64.30
24902;DHT22;31328;51.402;0.016;2023-06-22T15:28:58;27.80;64.60
24902;DHT22;31328;51.402;0.016;2023-06-22T15:31:24;27.70;64.70
24902;DHT22;31328;51.402;0.016;2023-06-22T15:33:50;27.60;65.00
24902;DHT22;31328;51.402;0.016;2023-06-22T15:36:16;27.50;64.70
24902;DHT22;31328;51.402;0.016;2023-06-22T15:38:43;27.50;64.50